Time;durP1;ratioP1;P1;durP2;ratioP2;P2;SDS_P1;SDS_P2;PMS_P1;PMS_P2;Temp;Humidity;BMP_temperature;BMP_pressure;BME280_temperature;BME280_humidity;BME280_pressure;Samples;Min_cycle;Max_cycle;Signal;HPM_P1;HPM_P2
2021/08/13 00:01:40;;;;;;;8.17;6.87;;;22.20;36.50;;;;;;4991398;28;20378;-68
2021/08/13 00:04:06;;;;;;;7.10;5.80;;;22.20;36.60;;;;;;4991602;28;20628;-68
2021/08/13 00:06:31;;;;;;;13.33;6.20;;;22.20;36.50;;;;;;4991231;28;20192;-68
2021/08/13 00:08:57;;;;;;;10.80;7.07;;;22.10;36.50;;;;;;4990991;28;20607;-68
2021/08/13 00:11:23;;;;;;;7.10;6.40;;;22.10;36.50;;;;;;4991077;28;20772;-68
2021/08/13 00:13:48;;;;;;;7.70;5.53;;;22.10;36.50;;;;;;4991037;28;20185;-69
2021/08/13 00:16:14;;;;;;;8.80;7.30;;;22.10;36.40;;;;;;4994632;28;20218;-68
2021/08/13 00:18:39;;;;;;;9.07;6.03;;;22.10;36.40;;;;;;4994822;28;20212;-69
2021/08/13 00:21:05;;;;;;;7.17;6.53;;;22.10;36.40;;;;;;4994433;28;20271;-69
2021/08/13 00:23:31;;;;;;;7.83;6.50;;;22.10;36.50;;;;;;4994940;28;20172;-69
2021/08/13 00:25:56;;;;;;;14.10;6.43;;;22.10;36.40;;;;;;4994610;28;20669;-69
2021/08/13 00:28:22;;;;;;;8.80;6.40;;;22.00;36.40;;;;;;4994715;28;20268;-69
2021/08/13 00:30:47;;;;;;;9.80;6.50;;;21.90;36.20;;;;;;4994096;28;20204;-69
2021/08/13 00:33:13;;;;;;;7.17;6.47;;;21.90;36.50;;;;;;4994522;28;20704;-69
2021/08/13 00:35:38;;;;;;;6.53;5.53;;;21.80;36.80;;;;;;4993129;28;20204;-68
2021/08/13 00:38:05;;;;;;;6.70;6.10;;;21.80;36.90;;;;;;4993257;28;20179;-68
2021/08/13 00:40:30;;;;;;;6.77;5.90;;;21.80;37.10;;;;;;4994059;28;20201;-68
2021/08/13 00:42:56;;;;;;;9.20;8.30;;;21.70;37.30;;;;;;4994453;28;20470;-68
2021/08/13 00:45:22;;;;;;;8.10;6.83;;;21.70;37.50;;;;;;4992871;28;20271;-68
2021/08/13 00:47:47;;;;;;;6.57;5.90;;;21.60;37.80;;;;;;4994331;28;20658;-68
2021/08/13 00:50:13;;;;;;;8.90;6.30;;;21.60;38.20;;;;;;4992626;28;20243;-68
2021/08/13 00:52:39;;;;;;;7.37;5.93;;;21.60;38.20;;;;;;4994205;28;20204;-68
2021/08/13 00:55:06;;;;;;;8.53;6.37;;;21.60;38.40;;;;;;4994010;28;20452;-68
2021/08/13 00:57:32;;;;;;;9.30;6.00;;;21.50;38.30;;;;;;4994102;28;20181;-67
2021/08/13 00:59:57;;;;;;;6.27;5.37;;;21.50;38.20;;;;;;4993790;28;20415;-67
2021/08/13 01:02:24;;;;;;;9.47;7.13;;;21.40;38.30;;;;;;4994002;28;20224;-68
2021/08/13 01:04:49;;;;;;;7.77;6.67;;;21.50;38.50;;;;;;4994032;28;20199;-67
2021/08/13 01:07:15;;;;;;;7.13;6.20;;;21.50;38.30;;;;;;4993983;28;20423;-67
2021/08/13 01:09:41;;;;;;;8.40;6.90;;;21.50;38.30;;;;;;4993730;28;20218;-69
2021/08/13 01:12:36;;;;;;;6.77;6.17;;;21.50;38.10;;;;;;4993907;28;20471;-68
2021/08/13 01:15:05;;;;;;;7.00;5.97;;;21.50;37.90;;;;;;4993708;28;20283;-68
2021/08/13 01:17:44;;;;;;;6.43;5.90;;;21.50;37.90;;;;;;4993917;28;20420;-68
2021/08/13 01:20:30;;;;;;;8.83;5.90;;;21.50;37.90;;;;;;4993350;28;20943;-68
2021/08/13 01:23:05;;;;;;;9.33;5.97;;;21.50;37.80;;;;;;4989517;28;20428;-68
2021/08/13 01:25:34;;;;;;;6.90;6.20;;;21.50;37.70;;;;;;4993531;28;20427;-68
2021/08/13 01:28:11;;;;;;;9.63;6.57;;;21.50;37.80;;;;;;4993480;28;20427;-68
2021/08/13 01:30:38;;;;;;;6.40;5.80;;;21.50;37.70;;;;;;4993203;28;20929;-68
2021/08/13 01:33:08;;;;;;;8.93;5.90;;;21.50;37.80;;;;;;4993480;28;20470;-68
2021/08/13 01:35:38;;;;;;;7.90;7.20;;;21.50;37.70;;;;;;4993379;28;20459;-68
2021/08/13 01:38:13;;;;;;;6.70;6.10;;;21.50;37.80;;;;;;4992043;28;20420;-68
2021/08/13 01:40:42;;;;;;;8.50;6.00;;;21.40;37.80;;;;;;4992944;28;20459;-68
2021/08/13 01:43:09;;;;;;;9.27;7.27;;;21.40;38.00;;;;;;4993245;28;20419;-68
2021/08/13 01:45:36;;;;;;;8.40;5.43;;;21.40;38.10;;;;;;4992063;28;21104;-68
2021/08/13 01:48:04;;;;;;;6.63;6.00;;;21.30;38.30;;;;;;4993231;28;20435;-68
2021/08/13 01:50:31;;;;;;;10.00;6.20;;;21.30;38.30;;;;;;4992759;28;20459;-68
2021/08/13 01:53:02;;;;;;;11.17;7.00;;;21.20;38.60;;;;;;4992933;28;20470;-68
2021/08/13 01:55:28;;;;;;;10.60;6.50;;;21.20;38.70;;;;;;4992874;28;20510;-68
2021/08/13 01:57:54;;;;;;;7.13;6.23;;;21.20;38.90;;;;;;4993031;28;20447;-68
2021/08/13 02:00:21;;;;;;;8.27;6.60;;;21.20;39.10;;;;;;4992684;28;20424;-68
2021/08/13 02:02:48;;;;;;;6.37;5.67;;;21.20;38.80;;;;;;4992836;28;20412;-68
2021/08/13 02:05:20;;;;;;;10.37;6.50;;;21.10;38.10;;;;;;4991314;28;20424;-68
2021/08/13 02:07:47;;;;;;;5.70;5.10;;;21.10;37.90;;;;;;4992631;28;20420;-68
2021/08/13 02:10:13;;;;;;;6.67;5.33;;;21.10;37.60;;;;;;4992625;28;20423;-68
2021/08/13 02:12:39;;;;;;;7.60;6.07;;;21.10;37.30;;;;;;4992741;28;20424;-70
2021/08/13 02:15:06;;;;;;;11.33;6.37;;;21.10;37.30;;;;;;4991438;28;20180;-68
2021/08/13 02:17:37;;;;;;;7.03;6.10;;;21.10;37.10;;;;;;4992734;28;20820;-68
2021/08/13 02:20:11;;;;;;;6.83;6.17;;;21.10;36.90;;;;;;4992331;28;20409;-68
2021/08/13 02:22:37;;;;;;;6.63;5.80;;;21.10;36.70;;;;;;4992604;28;20432;-68
2021/08/13 02:25:04;;;;;;;8.70;6.00;;;21.10;36.70;;;;;;4992783;28;20455;-68
2021/08/13 02:27:31;;;;;;;7.07;5.50;;;21.10;36.70;;;;;;4992410;28;20424;-68
2021/08/13 02:29:56;;;;;;;10.33;6.50;;;21.10;36.40;;;;;;4992194;28;20494;-69
2021/08/13 02:32:24;;;;;;;7.67;6.40;;;21.10;35.90;;;;;;4992263;28;20440;-68
2021/08/13 02:34:51;;;;;;;6.23;5.73;;;21.10;35.50;;;;;;4992238;28;20184;-68
2021/08/13 02:37:30;;;;;;;7.20;6.50;;;21.20;35.60;;;;;;4991574;28;20505;-69
2021/08/13 02:40:19;;;;;;;9.13;6.17;;;21.10;35.50;;;;;;4992133;28;20466;-68
2021/08/13 02:42:50;;;;;;;10.17;5.80;;;21.10;35.60;;;;;;4992073;28;20450;-68
2021/08/13 02:45:21;;;;;;;8.20;6.93;;;21.10;36.00;;;;;;4992014;28;20431;-68
2021/08/13 02:47:49;;;;;;;7.07;5.63;;;21.10;36.30;;;;;;4990918;28;20423;-68
2021/08/13 02:50:16;;;;;;;6.83;6.00;;;21.10;36.60;;;;;;4991714;28;20419;-68
2021/08/13 02:52:50;;;;;;;9.90;6.70;;;21.10;36.90;;;;;;4989645;23;20508;-68
2021/08/13 02:55:20;;;;;;;6.43;5.77;;;21.10;37.00;;;;;;4973058;28;20972;-69
2021/08/13 02:57:51;;;;;;;6.57;5.97;;;21.10;37.10;;;;;;4973046;28;20768;-69
2021/08/13 03:00:18;;;;;;;9.97;6.30;;;21.10;37.20;;;;;;4972914;28;20504;-68
2021/08/13 03:02:47;;;;;;;8.90;6.10;;;21.10;37.20;;;;;;4990908;28;20522;-68
2021/08/13 03:05:13;;;;;;;6.90;6.27;;;21.10;37.00;;;;;;4992341;28;20412;-69
2021/08/13 03:07:39;;;;;;;12.50;7.47;;;21.10;36.90;;;;;;4992293;28;20772;-69
2021/08/13 03:10:06;;;;;;;7.27;6.27;;;21.10;36.70;;;;;;4991664;28;20427;-69
2021/08/13 03:12:33;;;;;;;6.97;5.60;;;21.00;36.40;;;;;;4992107;28;20455;-69
2021/08/13 03:15:00;;;;;;;6.47;5.87;;;21.00;36.20;;;;;;4992216;28;20423;-69
2021/08/13 03:17:26;;;;;;;7.80;6.80;;;21.00;36.10;;;;;;4992166;28;20420;-69
2021/08/13 03:19:52;;;;;;;6.83;6.10;;;21.00;36.20;;;;;;4992124;28;20456;-68
2021/08/13 03:22:19;;;;;;;8.20;6.07;;;21.00;36.20;;;;;;4992057;28;20486;-69
2021/08/13 03:24:46;;;;;;;10.23;7.53;;;21.00;36.50;;;;;;4992032;28;20403;-69
2021/08/13 03:27:12;;;;;;;7.40;6.67;;;21.00;36.20;;;;;;4992010;28;20490;-68
2021/08/13 03:29:37;;;;;;;9.00;5.60;;;21.00;36.20;;;;;;4992048;28;20431;-68
2021/08/13 03:32:04;;;;;;;7.40;6.50;;;21.00;36.40;;;;;;4992133;28;20216;-69
2021/08/13 03:34:30;;;;;;;7.17;6.50;;;20.90;36.50;;;;;;4992022;28;20693;-68
2021/08/13 03:36:57;;;;;;;6.50;5.40;;;20.90;36.30;;;;;;4991915;28;20469;-69
2021/08/13 03:39:23;;;;;;;5.90;5.30;;;20.80;36.50;;;;;;4991681;28;20256;-69
2021/08/13 03:41:50;;;;;;;7.73;5.83;;;20.80;36.60;;;;;;4992032;28;20854;-69
2021/08/13 03:44:15;;;;;;;5.73;4.90;;;20.80;36.70;;;;;;4991820;28;20510;-68
2021/08/13 03:46:41;;;;;;;6.10;4.83;;;20.80;37.10;;;;;;4992261;28;20483;-68
2021/08/13 03:49:07;;;;;;;6.63;5.90;;;20.80;36.80;;;;;;4993780;28;20674;-69
2021/08/13 03:51:33;;;;;;;6.10;5.23;;;20.80;36.70;;;;;;4995976;28;20299;-69
2021/08/13 03:53:59;;;;;;;6.93;5.73;;;20.80;36.90;;;;;;4995897;28;20499;-69
2021/08/13 03:56:25;;;;;;;7.83;5.20;;;20.80;37.00;;;;;;4996740;28;20464;-69
2021/08/13 03:58:50;;;;;;;22.67;6.87;;;20.70;37.10;;;;;;4997813;28;20200;-69
2021/08/13 04:01:16;;;;;;;8.07;6.43;;;20.70;37.40;;;;;;4998146;28;20208;-68
2021/08/13 04:03:41;;;;;;;6.00;5.40;;;20.70;37.40;;;;;;4997369;28;20177;-69
2021/08/13 04:06:07;;;;;;;7.60;6.43;;;20.70;37.80;;;;;;4996003;28;20184;-69
2021/08/13 04:08:32;;;;;;;7.10;4.50;;;20.70;37.80;;;;;;4995372;28;20211;-69
2021/08/13 04:10:58;;;;;;;6.60;6.00;;;20.70;37.80;;;;;;4995412;28;20565;-67
2021/08/13 04:13:24;;;;;;;12.33;6.13;;;20.70;38.20;;;;;;4995411;28;20177;-69
2021/08/13 04:15:49;;;;;;;8.67;7.23;;;20.70;38.70;;;;;;4995143;28;20673;-69
2021/08/13 04:18:15;;;;;;;7.23;6.30;;;20.70;40.00;;;;;;4995203;28;20172;-68
2021/08/13 04:20:40;;;;;;;10.70;8.00;;;20.70;39.60;;;;;;4994736;28;20200;-68
2021/08/13 04:23:06;;;;;;;10.73;7.37;;;20.70;39.80;;;;;;4995026;28;20260;-69
2021/08/13 04:25:31;;;;;;;8.17;7.37;;;20.60;40.10;;;;;;4994960;28;20234;-68
2021/08/13 04:27:57;;;;;;;6.33;5.77;;;20.70;40.50;;;;;;4994844;28;20184;-69
2021/08/13 04:30:23;;;;;;;8.10;7.03;;;20.70;39.70;;;;;;4994536;28;20220;-69
2021/08/13 04:32:49;;;;;;;8.93;6.10;;;20.60;39.60;;;;;;4994948;28;20196;-68
2021/08/13 04:35:15;;;;;;;10.90;7.27;;;20.60;40.20;;;;;;4994523;28;20439;-68
2021/08/13 04:37:40;;;;;;;7.10;6.20;;;20.60;40.00;;;;;;4994711;28;20576;-69
2021/08/13 04:40:07;;;;;;;8.77;7.97;;;20.60;39.70;;;;;;4994282;28;20180;-67
2021/08/13 04:42:32;;;;;;;7.60;6.80;;;20.60;39.60;;;;;;4994525;28;20193;-68
2021/08/13 04:44:58;;;;;;;6.83;6.03;;;20.60;39.80;;;;;;5010328;28;20430;-68
2021/08/13 04:47:23;;;;;;;8.60;6.60;;;20.50;39.90;;;;;;5014379;28;20215;-67
2021/08/13 04:49:49;;;;;;;6.87;6.20;;;20.60;39.80;;;;;;5013716;28;20183;-69
2021/08/13 04:52:14;;;;;;;8.10;7.30;;;20.50;40.00;;;;;;5013695;28;20754;-67
2021/08/13 04:54:40;;;;;;;12.63;7.03;;;20.60;40.00;;;;;;5013751;28;20229;-68
2021/08/13 04:57:05;;;;;;;6.90;6.07;;;20.60;40.20;;;;;;5013672;28;20212;-68
2021/08/13 04:59:31;;;;;;;8.20;7.23;;;20.50;40.30;;;;;;5013365;28;20665;-69
2021/08/13 05:01:57;;;;;;;7.87;6.80;;;20.40;40.70;;;;;;5013208;28;20200;-68
2021/08/13 05:04:23;;;;;;;9.47;6.90;;;20.40;41.00;;;;;;5013739;28;20169;-68
2021/08/13 05:06:48;;;;;;;8.77;7.20;;;20.40;41.50;;;;;;5013567;28;20407;-69
2021/08/13 05:09:14;;;;;;;6.73;6.03;;;20.30;41.50;;;;;;5013432;28;20210;-68
2021/08/13 05:11:39;;;;;;;6.63;5.90;;;20.40;41.80;;;;;;5013535;28;20572;-68
2021/08/13 05:14:05;;;;;;;9.30;6.93;;;20.40;41.50;;;;;;5013624;28;20176;-67
2021/08/13 05:16:31;;;;;;;7.23;6.57;;;20.40;41.10;;;;;;5013289;28;20210;-69
2021/08/13 05:18:56;;;;;;;9.23;6.60;;;20.50;41.00;;;;;;5013224;28;20593;-69
2021/08/13 05:21:22;;;;;;;9.37;7.87;;;20.60;40.70;;;;;;5011871;28;20299;-69
2021/08/13 05:23:47;;;;;;;14.63;7.50;;;20.70;40.50;;;;;;5011781;28;20598;-68
2021/08/13 05:26:13;;;;;;;6.63;6.00;;;21.00;40.70;;;;;;5013352;28;20188;-68
2021/08/13 05:28:39;;;;;;;11.03;6.40;;;21.20;38.40;;;;;;5013233;28;20183;-67
2021/08/13 05:31:04;;;;;;;9.10;7.20;;;21.40;38.70;;;;;;5006025;28;20251;-68
2021/08/13 05:33:30;;;;;;;8.23;6.37;;;21.90;37.30;;;;;;4993515;28;20192;-69
2021/08/13 05:35:55;;;;;;;7.77;6.63;;;22.60;35.50;;;;;;4992259;28;20549;-67
2021/08/13 05:38:21;;;;;;;8.50;7.07;;;23.40;31.40;;;;;;4991608;28;20181;-67
2021/08/13 05:40:47;;;;;;;8.33;6.70;;;23.90;29.60;;;;;;4991665;28;20323;-68
2021/08/13 05:43:12;;;;;;;9.30;6.87;;;23.90;28.90;;;;;;4995516;28;20525;-68
2021/08/13 05:45:38;;;;;;;8.67;7.33;;;23.70;29.30;;;;;;5011008;28;20315;-69
2021/08/13 05:48:04;;;;;;;9.87;8.27;;;23.70;29.30;;;;;;5011053;28;20195;-68
2021/08/13 05:50:29;;;;;;;9.60;6.40;;;23.60;29.20;;;;;;5009307;28;20691;-68
2021/08/13 05:52:55;;;;;;;7.80;7.10;;;23.40;29.50;;;;;;4992478;28;20539;-67
2021/08/13 05:55:21;;;;;;;21.57;6.83;;;23.40;30.00;;;;;;4991943;28;20180;-68
2021/08/13 05:57:46;;;;;;;7.70;6.90;;;23.40;30.30;;;;;;4993322;28;20177;-67
2021/08/13 06:00:13;;;;;;;7.53;6.40;;;23.50;30.80;;;;;;4992960;28;20189;-67
2021/08/13 06:02:53;;;;;;;12.13;7.50;;;23.50;29.90;;;;;;5011480;28;20257;-67
2021/08/13 06:05:18;;;;;;;12.43;7.87;;;23.60;29.40;;;;;;5012662;28;20418;-68
2021/08/13 06:07:44;;;;;;;9.27;8.37;;;23.70;29.30;;;;;;5012662;28;20411;-67
2021/08/13 06:10:10;;;;;;;9.67;7.90;;;23.80;29.40;;;;;;5012557;28;20180;-67
2021/08/13 06:12:35;;;;;;;8.93;6.70;;;23.80;29.00;;;;;;4993909;28;20209;-67
2021/08/13 06:15:01;;;;;;;8.93;7.43;;;23.90;29.00;;;;;;4992797;28;20422;-67
2021/08/13 06:17:26;;;;;;;11.13;7.60;;;24.00;28.30;;;;;;4992750;28;20216;-67
2021/08/13 06:19:52;;;;;;;10.70;7.87;;;24.20;29.50;;;;;;4992486;28;20833;-67
2021/08/13 06:22:17;;;;;;;8.03;7.03;;;24.40;29.10;;;;;;5007551;28;20204;-68
2021/08/13 06:24:43;;;;;;;7.53;6.80;;;24.60;28.40;;;;;;5012192;28;20168;-69
2021/08/13 06:27:08;;;;;;;12.03;8.00;;;24.80;27.70;;;;;;5012521;28;20187;-68
2021/08/13 06:29:34;;;;;;;8.17;7.47;;;24.90;28.20;;;;;;4999949;28;20312;-68
2021/08/13 06:31:59;;;;;;;11.40;8.60;;;25.00;26.60;;;;;;4992548;28;20192;-68
2021/08/13 06:34:25;;;;;;;8.73;7.93;;;25.00;26.40;;;;;;4992666;28;20181;-66
2021/08/13 06:36:50;;;;;;;10.83;8.37;;;25.00;26.60;;;;;;4992359;28;20215;-67
2021/08/13 06:39:16;;;;;;;11.50;8.37;;;25.00;25.70;;;;;;5000573;28;20856;-66
2021/08/13 06:41:41;;;;;;;10.53;8.70;;;25.00;25.70;;;;;;5011938;28;20249;-68
2021/08/13 06:44:07;;;;;;;8.67;7.90;;;25.00;26.10;;;;;;5011861;28;20691;-67
2021/08/13 06:46:33;;;;;;;8.40;7.67;;;25.10;25.30;;;;;;5012009;28;20818;-69
2021/08/13 06:48:58;;;;;;;9.13;8.33;;;25.30;25.70;;;;;;5005806;28;20527;-67
2021/08/13 06:51:24;;;;;;;8.73;7.90;;;25.30;24.90;;;;;;4992080;28;20208;-68
2021/08/13 06:53:49;;;;;;;13.53;9.03;;;25.50;25.30;;;;;;4992358;28;20235;-68
2021/08/13 06:56:15;;;;;;;9.50;8.57;;;25.50;25.80;;;;;;4992135;28;20207;-68
2021/08/13 06:58:41;;;;;;;14.73;9.87;;;25.60;26.20;;;;;;4995019;28;20179;-68
2021/08/13 07:01:06;;;;;;;12.57;9.20;;;25.70;25.20;;;;;;5011390;28;20199;-68
2021/08/13 07:03:32;;;;;;;10.67;9.27;;;25.70;24.70;;;;;;5011552;28;20179;-70
2021/08/13 07:05:57;;;;;;;9.37;8.60;;;25.90;24.90;;;;;;4994645;28;20202;-68
2021/08/13 07:08:22;;;;;;;8.70;8.00;;;26.00;24.90;;;;;;4991868;28;20188;-67
2021/08/13 07:10:48;;;;;;;9.27;8.37;;;26.20;23.60;;;;;;4991588;28;20219;-69
2021/08/13 07:13:14;;;;;;;9.30;8.60;;;26.20;23.90;;;;;;4991604;28;20208;-69
2021/08/13 07:15:39;;;;;;;13.43;8.60;;;26.10;23.90;;;;;;5001782;28;20230;-69
2021/08/13 07:18:05;;;;;;;14.77;9.33;;;26.20;24.90;;;;;;4997815;28;20238;-67
2021/08/13 07:20:31;;;;;;;10.67;9.03;;;26.30;23.50;;;;;;5004261;28;20234;-67
2021/08/13 07:22:57;;;;;;;9.17;8.37;;;26.40;23.60;;;;;;5007363;28;20746;-67
2021/08/13 07:25:23;;;;;;;9.27;8.33;;;26.60;22.80;;;;;;5006911;28;20498;-67
2021/08/13 07:27:48;;;;;;;8.97;8.17;;;26.80;23.10;;;;;;5007019;28;20562;-70
2021/08/13 07:30:15;;;;;;;8.83;8.23;;;26.90;22.30;;;;;;4992358;28;20185;-67
2021/08/13 07:32:40;;;;;;;11.60;9.83;;;26.90;23.20;;;;;;4987095;28;20219;-69
2021/08/13 07:35:06;;;;;;;10.70;9.90;;;26.90;22.50;;;;;;4986858;28;20420;-68
2021/08/13 07:37:32;;;;;;;11.00;10.10;;;27.00;22.20;;;;;;4988230;28;20229;-67
2021/08/13 07:39:58;;;;;;;9.50;8.87;;;27.10;22.10;;;;;;4987251;28;20439;-67
2021/08/13 07:42:27;;;;;;;10.13;9.40;;;27.40;22.10;;;;;;4987096;28;20192;-70
2021/08/13 07:44:53;;;;;;;11.43;10.60;;;27.50;22.00;;;;;;4987825;28;20196;-68
2021/08/13 07:47:18;;;;;;;9.83;9.03;;;27.60;21.30;;;;;;4985891;28;20841;-69
2021/08/13 07:49:44;;;;;;;11.73;10.80;;;27.80;21.40;;;;;;4997211;28;20435;-68
2021/08/13 07:52:10;;;;;;;11.20;10.40;;;27.90;19.80;;;;;;5006972;28;20705;-68
2021/08/13 07:54:35;;;;;;;11.27;10.37;;;28.00;19.80;;;;;;5006243;28;20188;-69
2021/08/13 07:57:01;;;;;;;10.70;9.83;;;28.00;20.10;;;;;;5006257;28;20211;-72
2021/08/13 07:59:27;;;;;;;10.93;10.13;;;28.00;21.50;;;;;;5000712;28;20490;-69
2021/08/13 08:01:52;;;;;;;11.00;10.30;;;28.00;20.10;;;;;;4995189;28;20601;-68
2021/08/13 08:04:18;;;;;;;11.20;10.30;;;28.00;20.00;;;;;;5008263;28;20183;-69
2021/08/13 08:06:43;;;;;;;11.47;10.53;;;28.20;20.20;;;;;;5007005;28;20192;-69
2021/08/13 08:09:09;;;;;;;11.60;10.80;;;28.30;20.10;;;;;;5005867;28;20869;-69
2021/08/13 08:11:35;;;;;;;13.90;12.07;;;28.50;19.30;;;;;;5001756;28;20222;-69
2021/08/13 08:14:00;;;;;;;12.73;11.80;;;28.70;17.90;;;;;;4993588;28;20184;-69
2021/08/13 08:16:26;;;;;;;12.70;11.70;;;28.90;17.50;;;;;;4996750;28;20215;-68
2021/08/13 08:18:51;;;;;;;12.93;12.20;;;29.20;17.70;;;;;;5005739;28;20188;-69
2021/08/13 08:21:17;;;;;;;13.37;12.37;;;29.60;16.20;;;;;;5006848;28;20195;-69
2021/08/13 08:23:42;;;;;;;13.27;12.50;;;30.10;15.60;;;;;;5000816;28;20765;-69
2021/08/13 08:26:08;;;;;;;14.00;13.30;;;30.70;14.00;;;;;;5005887;28;20220;-70
2021/08/13 08:28:33;;;;;;;16.20;14.67;;;31.00;14.10;;;;;;5000916;28;20230;-68
2021/08/13 08:30:59;;;;;;;14.80;13.70;;;31.40;13.40;;;;;;4994542;28;20200;-67
2021/08/13 08:33:24;;;;;;;15.40;14.23;;;31.30;14.90;;;;;;5005150;28;20191;-70
2021/08/13 08:35:50;;;;;;;14.50;13.60;;;30.90;14.10;;;;;;4995494;28;20226;-68
2021/08/13 08:38:16;;;;;;;14.40;13.50;;;30.50;13.90;;;;;;5009392;28;20554;-68
2021/08/13 08:40:42;;;;;;;13.13;12.53;;;30.20;15.00;;;;;;5001432;28;20719;-68
2021/08/13 08:43:09;;;;;;;12.87;12.20;;;30.00;14.80;;;;;;5006717;28;21018;-67
2021/08/13 08:45:37;;;;;;;14.27;13.27;;;29.80;16.30;;;;;;5002952;28;20503;-68
2021/08/13 08:48:05;;;;;;;15.63;14.63;;;29.80;16.30;;;;;;5008937;28;20423;-68
2021/08/13 08:50:34;;;;;;;14.10;13.27;;;29.90;15.30;;;;;;5003080;28;20427;-68
2021/08/13 08:53:03;;;;;;;12.60;11.90;;;29.70;16.20;;;;;;5013348;28;20433;-68
2021/08/13 08:55:32;;;;;;;13.50;12.80;;;29.90;17.20;;;;;;5013677;28;20425;-68
2021/08/13 08:57:59;;;;;;;13.57;12.77;;;29.90;17.50;;;;;;5012731;28;20423;-69
2021/08/13 09:00:25;;;;;;;13.33;12.63;;;29.90;16.80;;;;;;5014287;28;20431;-67
2021/08/13 09:02:53;;;;;;;13.77;12.60;;;29.90;17.40;;;;;;5013473;28;20431;-67
2021/08/13 09:05:19;;;;;;;14.60;13.80;;;29.80;17.60;;;;;;5013292;28;20188;-68
2021/08/13 09:07:44;;;;;;;14.10;13.07;;;29.90;16.20;;;;;;5013315;28;20415;-69
2021/08/13 09:10:13;;;;;;;14.53;13.53;;;29.80;17.00;;;;;;5012403;28;20577;-67
2021/08/13 09:12:41;;;;;;;13.97;12.70;;;29.80;16.80;;;;;;4997246;28;20238;-68
2021/08/13 09:15:26;;;;;;;13.40;12.70;;;29.80;17.40;;;;;;5013365;28;20411;-67
2021/08/13 09:18:16;;;;;;;14.00;13.23;;;29.90;17.40;;;;;;5013535;28;20425;-67
2021/08/13 09:20:44;;;;;;;14.03;13.33;;;29.80;16.70;;;;;;5011573;28;20485;-69
2021/08/13 09:23:26;;;;;;;14.07;13.17;;;29.80;17.20;;;;;;5013180;28;20403;-68
2021/08/13 09:26:03;;;;;;;13.53;12.83;;;29.80;18.30;;;;;;5011705;28;20513;-68
2021/08/13 09:28:50;;;;;;;14.17;13.37;;;29.80;17.70;;;;;;5011526;28;20422;-69
2021/08/13 09:31:20;;;;;;;12.30;11.60;;;29.80;18.50;;;;;;5011174;28;20446;-67
2021/08/13 09:33:49;;;;;;;13.30;12.60;;;29.90;18.80;;;;;;5012881;28;20542;-67
2021/08/13 09:36:17;;;;;;;13.13;12.43;;;30.10;18.20;;;;;;5008753;28;20549;-66
2021/08/13 09:38:42;;;;;;;15.73;13.13;;;30.30;16.90;;;;;;5010472;28;20441;-68
2021/08/13 09:41:14;;;;;;;14.00;12.90;;;30.40;17.20;;;;;;5010369;28;20442;-68
2021/08/13 09:43:55;;;;;;;14.83;13.53;;;30.40;16.60;;;;;;5012512;28;20167;-70
2021/08/13 09:46:21;;;;;;;13.30;12.60;;;30.40;15.90;;;;;;5012464;28;20959;-68
2021/08/13 09:48:47;;;;;;;14.07;12.57;;;30.30;16.30;;;;;;5010221;28;20958;-72
2021/08/13 09:51:35;;;;;;;14.57;13.70;;;30.40;16.80;;;;;;5014760;28;20446;-69
2021/08/13 09:54:03;;;;;;;20.53;12.17;;;30.50;16.80;;;;;;5017110;28;20184;-68
2021/08/13 09:56:32;;;;;;;14.43;13.43;;;30.50;16.60;;;;;;5019215;28;20446;-69
2021/08/13 09:59:15;;;;;;;13.20;12.50;;;30.60;16.00;;;;;;5019292;28;20411;-69
2021/08/13 10:01:48;;;;;;;14.80;13.80;;;30.60;16.70;;;;;;4992424;28;20423;-67
2021/08/13 10:04:16;;;;;;;14.00;13.17;;;30.70;16.30;;;;;;4992882;28;20412;-70
2021/08/13 10:06:43;;;;;;;13.73;12.87;;;30.80;16.80;;;;;;5001122;28;20422;-67
2021/08/13 10:09:25;;;;;;;14.40;13.50;;;30.90;17.20;;;;;;5010756;28;20418;-68
2021/08/13 10:11:57;;;;;;;14.60;13.70;;;31.10;16.30;;;;;;4991584;28;20822;-67
2021/08/13 10:14:42;;;;;;;15.33;14.40;;;31.20;16.90;;;;;;4992443;28;20411;-67
2021/08/13 10:17:19;;;;;;;17.30;16.20;;;31.10;16.20;;;;;;4992699;28;20502;-67
2021/08/13 10:19:47;;;;;;;15.53;14.73;;;31.00;14.20;;;;;;4992932;28;20423;-68
2021/08/13 10:22:14;;;;;;;16.10;15.00;;;30.90;16.20;;;;;;4992931;28;20991;-67
2021/08/13 10:24:40;;;;;;;17.20;16.00;;;31.00;16.20;;;;;;4992843;28;20400;-68
2021/08/13 10:27:06;;;;;;;16.43;15.63;;;31.10;15.40;;;;;;4993144;28;20506;-68
2021/08/13 10:29:32;;;;;;;22.83;14.17;;;31.30;14.30;;;;;;4993900;28;20416;-68
2021/08/13 10:31:59;;;;;;;17.57;16.57;;;31.30;15.60;;;;;;5011492;28;21086;-67
2021/08/13 10:34:25;;;;;;;16.97;15.47;;;31.50;15.00;;;;;;5012153;28;20411;-69
2021/08/13 10:36:51;;;;;;;15.60;14.80;;;31.50;15.20;;;;;;5012047;28;20556;-68
2021/08/13 10:39:19;;;;;;;16.00;15.07;;;31.40;15.30;;;;;;5012150;28;20952;-67
2021/08/13 10:41:48;;;;;;;15.73;14.73;;;31.40;14.70;;;;;;5011894;28;20447;-67
2021/08/13 10:44:18;;;;;;;15.80;14.70;;;31.50;15.50;;;;;;5011621;28;20446;-66
2021/08/13 10:46:46;;;;;;;24.50;16.90;;;31.50;15.30;;;;;;5011763;28;20411;-65
2021/08/13 10:49:14;;;;;;;16.50;15.73;;;31.50;14.40;;;;;;5011564;28;20769;-66
2021/08/13 10:51:39;;;;;;;18.50;15.70;;;31.40;14.40;;;;;;4993087;28;20451;-66
2021/08/13 10:54:19;;;;;;;16.37;14.93;;;31.40;14.90;;;;;;4992563;28;20960;-67
2021/08/13 10:56:48;;;;;;;16.00;15.30;;;31.40;14.60;;;;;;4992506;28;20204;-66
2021/08/13 10:59:39;;;;;;;14.93;14.23;;;31.50;14.40;;;;;;4991994;28;20424;-68
2021/08/13 11:02:15;;;;;;;16.40;15.30;;;31.40;14.30;;;;;;4992414;28;21062;-69
2021/08/13 11:04:46;;;;;;;17.47;16.17;;;31.40;14.40;;;;;;4992595;28;20503;-66
2021/08/13 11:07:12;;;;;;;17.93;16.60;;;31.50;15.40;;;;;;4992047;28;20423;-66
2021/08/13 11:09:39;;;;;;;17.07;16.03;;;31.50;14.40;;;;;;4992415;28;20462;-67
2021/08/13 11:12:05;;;;;;;17.00;16.10;;;31.50;13.70;;;;;;4992424;28;20848;-67
2021/08/13 11:14:32;;;;;;;16.53;15.43;;;31.40;14.10;;;;;;4992209;28;20466;-67
2021/08/13 11:17:00;;;;;;;15.93;14.90;;;31.40;14.40;;;;;;4992180;28;20200;-67
2021/08/13 11:19:26;;;;;;;16.07;15.17;;;31.50;15.30;;;;;;4992079;28;20416;-65
2021/08/13 11:21:55;;;;;;;18.33;17.13;;;31.50;14.60;;;;;;5011319;28;20443;-67
2021/08/13 11:24:26;;;;;;;18.40;17.40;;;31.60;13.90;;;;;;5012372;28;20457;-67
2021/08/13 11:26:55;;;;;;;18.20;15.90;;;31.60;13.10;;;;;;5010916;28;20445;-67
2021/08/13 11:29:30;;;;;;;17.00;16.17;;;31.60;14.50;;;;;;5006981;28;21039;-67
2021/08/13 11:32:09;;;;;;;17.30;16.50;;;31.70;14.50;;;;;;5006902;28;20434;-67
2021/08/13 11:35:04;;;;;;;18.60;17.40;;;31.90;12.90;;;;;;5007981;28;20434;-68
2021/08/13 11:37:38;;;;;;;18.00;17.10;;;31.90;12.10;;;;;;4997089;28;20466;-68
2021/08/13 11:40:13;;;;;;;17.37;16.30;;;31.90;12.60;;;;;;4987637;28;20531;-67
2021/08/13 11:42:47;;;;;;;18.17;16.90;;;31.90;14.60;;;;;;4988060;28;20438;-68
2021/08/13 11:45:14;;;;;;;18.13;17.10;;;31.90;13.40;;;;;;5005891;28;20996;-69
2021/08/13 11:47:52;;;;;;;19.80;18.20;;;31.90;12.50;;;;;;4995448;28;20428;-66
2021/08/13 11:50:19;;;;;;;17.70;16.80;;;31.80;11.70;;;;;;4986964;28;20423;-65
2021/08/13 11:52:48;;;;;;;18.97;17.73;;;31.70;12.00;;;;;;4988904;28;20466;-66
2021/08/13 11:55:28;;;;;;;19.30;17.93;;;31.60;14.10;;;;;;4992217;28;20412;-66
2021/08/13 11:57:55;;;;;;;20.30;19.20;;;31.60;12.90;;;;;;5004564;28;20438;-67
2021/08/13 12:00:26;;;;;;;17.90;17.00;;;31.60;12.80;;;;;;5011585;28;20908;-68
2021/08/13 12:03:03;;;;;;;16.70;15.90;;;31.60;12.40;;;;;;5011653;28;20471;-67
2021/08/13 12:05:34;;;;;;;18.27;17.37;;;31.70;13.80;;;;;;5011108;28;20825;-68
2021/08/13 12:08:02;;;;;;;18.40;17.50;;;31.70;12.90;;;;;;4998298;28;20430;-67
2021/08/13 12:10:29;;;;;;;18.23;17.33;;;31.80;13.10;;;;;;4991658;28;20454;-67
2021/08/13 12:12:54;;;;;;;19.10;18.07;;;32.00;13.30;;;;;;4995137;28;20459;-67
2021/08/13 12:15:32;;;;;;;19.57;18.37;;;32.00;13.80;;;;;;4995152;28;20434;-67
2021/08/13 12:17:58;;;;;;;19.60;18.30;;;32.00;12.60;;;;;;4996194;28;20211;-67
2021/08/13 12:20:23;;;;;;;19.70;18.60;;;32.00;11.90;;;;;;4994673;28;20550;-67
2021/08/13 12:22:55;;;;;;;19.37;17.50;;;32.10;11.30;;;;;;4994850;28;20478;-68
2021/08/13 12:25:21;;;;;;;19.40;18.40;;;32.10;12.40;;;;;;4994021;28;20226;-68
2021/08/13 12:27:46;;;;;;;19.20;18.00;;;32.10;11.90;;;;;;5003414;28;20418;-68
2021/08/13 12:30:16;;;;;;;19.77;18.67;;;32.10;12.30;;;;;;5012238;28;20223;-68
2021/08/13 12:32:43;;;;;;;21.03;19.77;;;32.10;11.90;;;;;;5012476;28;20208;-67
2021/08/13 12:35:11;;;;;;;20.03;18.93;;;32.10;12.70;;;;;;5012855;28;20457;-68
2021/08/13 12:37:38;;;;;;;20.20;18.40;;;32.00;12.20;;;;;;5003192;28;20521;-68
2021/08/13 12:40:06;;;;;;;20.90;19.20;;;32.00;11.90;;;;;;4993240;28;20484;-68
2021/08/13 12:42:31;;;;;;;19.53;18.20;;;32.00;11.70;;;;;;4993528;28;20506;-68